Time;durP1;ratioP1;P1;durP2;ratioP2;P2;SDS_P1;SDS_P2;PMS_P1;PMS_P2;Temp;Humidity;BMP_temperature;BMP_pressure;BME280_temperature;BME280_humidity;BME280_pressure;Samples;Min_cycle;Max_cycle;Signal;HPM_P1;HPM_P2
2022/08/03 00:00:01;;;;;;;5.63;1.48;;;17.00;51.90;;;;;;5072200;28;20221;-36
2022/08/03 00:02:32;;;;;;;3.47;1.20;;;17.00;51.90;;;;;;5073143;28;20194;-37
2022/08/03 00:05:02;;;;;;;2.33;1.40;;;17.00;51.90;;;;;;5073700;28;20238;-37
2022/08/03 00:07:37;;;;;;;2.92;1.10;;;17.00;51.90;;;;;;5072796;28;20199;-36
2022/08/03 00:10:08;;;;;;;2.80;1.30;;;17.10;52.00;;;;;;5072962;28;20194;-37
2022/08/03 00:12:39;;;;;;;1.88;1.02;;;17.10;52.10;;;;;;5072505;28;20195;-36
2022/08/03 00:15:10;;;;;;;1.52;0.85;;;17.10;52.00;;;;;;5073012;28;20214;-36
2022/08/03 00:17:41;;;;;;;3.10;1.17;;;17.10;51.90;;;;;;5072817;28;20195;-38
2022/08/03 00:20:12;;;;;;;1.42;1.02;;;17.10;51.90;;;;;;5073390;28;20199;-36
2022/08/03 00:22:45;;;;;;;1.55;0.70;;;17.10;51.90;;;;;;5072996;28;20679;-37
2022/08/03 00:25:15;;;;;;;1.95;0.90;;;17.20;51.60;;;;;;5072441;28;20857;-36
2022/08/03 00:27:46;;;;;;;1.05;0.60;;;17.20;51.10;;;;;;5072572;28;20206;-39
2022/08/03 00:30:17;;;;;;;1.92;0.70;;;17.20;51.00;;;;;;5072093;28;20205;-37
2022/08/03 00:32:48;;;;;;;1.30;0.70;;;17.20;51.10;;;;;;5072480;28;20210;-44
2022/08/03 00:35:18;;;;;;;1.42;0.75;;;17.30;51.20;;;;;;5071202;28;20219;-36
2022/08/03 00:37:51;;;;;;;1.85;0.80;;;17.30;51.10;;;;;;5081430;28;20190;-37
2022/08/03 00:40:22;;;;;;;2.65;0.80;;;17.30;51.10;;;;;;5092301;28;20202;-36
2022/08/03 00:42:55;;;;;;;1.48;0.60;;;17.40;51.20;;;;;;5085273;28;20638;-36
2022/08/03 00:45:27;;;;;;;2.55;0.60;;;17.40;51.30;;;;;;5070770;28;20867;-35
2022/08/03 00:47:57;;;;;;;2.15;0.70;;;17.40;51.30;;;;;;5072734;28;20195;-36
2022/08/03 00:50:29;;;;;;;1.27;0.77;;;17.50;51.40;;;;;;5072192;28;20202;-36
2022/08/03 00:53:03;;;;;;;1.23;0.73;;;17.50;51.40;;;;;;5072667;28;20199;-36
2022/08/03 00:55:33;;;;;;;0.80;0.55;;;17.50;51.40;;;;;;5071400;28;20222;-39
2022/08/03 00:58:05;;;;;;;1.05;0.68;;;17.50;51.50;;;;;;5071617;28;20198;-36
2022/08/03 01:00:37;;;;;;;1.65;0.80;;;17.50;51.40;;;;;;5069168;28;20202;-36
2022/08/03 01:03:08;;;;;;;1.52;0.70;;;17.50;51.40;;;;;;5071855;28;20195;-36
2022/08/03 01:05:47;;;;;;;1.83;0.68;;;17.60;51.50;;;;;;5071660;28;20233;-39
2022/08/03 01:08:29;;;;;;;1.35;0.52;;;17.50;51.40;;;;;;5071987;28;20209;-38
2022/08/03 01:11:08;;;;;;;1.38;0.55;;;17.60;51.40;;;;;;5072154;28;20199;-36
2022/08/03 01:13:49;;;;;;;0.60;0.50;;;17.60;51.40;;;;;;5071863;28;20205;-36
2022/08/03 01:16:25;;;;;;;0.63;0.60;;;17.60;52.00;;;;;;5071934;28;20198;-36
2022/08/03 01:19:01;;;;;;;1.00;0.50;;;17.60;51.30;;;;;;5071743;28;20660;-36
2022/08/03 01:21:51;;;;;;;1.70;0.40;;;17.60;51.30;;;;;;5071871;28;20729;-36
2022/08/03 01:24:39;;;;;;;1.45;0.70;;;17.70;51.40;;;;;;5070985;28;20226;-36
2022/08/03 01:27:14;;;;;;;1.15;0.55;;;17.70;51.30;;;;;;5072151;28;20201;-36
2022/08/03 01:30:03;;;;;;;1.25;0.73;;;17.70;51.30;;;;;;5071172;28;20707;-42
2022/08/03 01:32:49;;;;;;;1.00;0.68;;;17.70;51.40;;;;;;5071144;28;20198;-41
2022/08/03 01:35:27;;;;;;;1.02;0.68;;;17.70;50.50;;;;;;5069782;28;20214;-38
2022/08/03 01:38:04;;;;;;;1.20;0.70;;;17.80;50.00;;;;;;5051642;28;20207;-37
2022/08/03 01:40:38;;;;;;;0.90;0.40;;;17.80;49.70;;;;;;5060833;28;20198;-39
2022/08/03 01:43:10;;;;;;;0.60;0.50;;;17.80;50.00;;;;;;5070848;28;20214;-45
2022/08/03 01:45:44;;;;;;;1.48;0.65;;;17.80;50.10;;;;;;5070723;28;20222;-40
2022/08/03 01:48:17;;;;;;;1.98;0.60;;;17.80;50.20;;;;;;5070683;28;20202;-38
2022/08/03 01:50:50;;;;;;;0.55;0.32;;;17.80;50.20;;;;;;5070824;28;20190;-37
2022/08/03 01:53:21;;;;;;;0.82;0.45;;;17.90;50.30;;;;;;5071180;28;20206;-42
2022/08/03 01:55:56;;;;;;;0.95;0.50;;;17.90;50.30;;;;;;5070911;28;20206;-38
2022/08/03 01:58:28;;;;;;;1.05;0.52;;;17.90;50.30;;;;;;5069671;28;20194;-41
2022/08/03 02:01:02;;;;;;;2.00;0.55;;;17.90;50.30;;;;;;5070839;28;20195;-37
2022/08/03 02:03:35;;;;;;;1.63;0.55;;;17.90;50.40;;;;;;5070615;28;20203;-36
2022/08/03 02:06:07;;;;;;;1.35;0.63;;;17.90;50.40;;;;;;5071179;28;20242;-37
2022/08/03 02:08:39;;;;;;;0.88;0.68;;;18.00;50.40;;;;;;5070705;28;20668;-36
2022/08/03 02:11:10;;;;;;;0.75;0.60;;;18.00;50.40;;;;;;5071133;28;20211;-36
2022/08/03 02:13:41;;;;;;;2.08;0.60;;;18.00;50.50;;;;;;5071036;28;20199;-36
2022/08/03 02:16:15;;;;;;;0.93;0.47;;;18.00;50.50;;;;;;5070706;28;20560;-36
2022/08/03 02:18:47;;;;;;;1.00;0.60;;;18.10;50.60;;;;;;5071088;28;20563;-37
2022/08/03 02:21:18;;;;;;;1.98;0.50;;;18.10;50.50;;;;;;5070416;28;20205;-36
2022/08/03 02:23:49;;;;;;;1.98;0.60;;;18.10;50.50;;;;;;5070822;28;20677;-37
2022/08/03 02:26:22;;;;;;;2.38;0.57;;;18.10;50.50;;;;;;5070239;28;20682;-36
2022/08/03 02:28:55;;;;;;;1.55;0.60;;;18.20;50.50;;;;;;5070760;28;20202;-37
2022/08/03 02:31:30;;;;;;;1.95;0.50;;;18.20;50.50;;;;;;5070232;28;20915;-36
2022/08/03 02:34:05;;;;;;;1.13;0.47;;;18.20;50.50;;;;;;5069873;28;20225;-36
2022/08/03 02:36:39;;;;;;;1.52;0.70;;;18.20;50.40;;;;;;5068694;28;20580;-37
2022/08/03 02:39:12;;;;;;;1.88;0.47;;;18.20;50.30;;;;;;5069459;28;20556;-38
2022/08/03 02:41:49;;;;;;;1.70;0.70;;;18.30;50.40;;;;;;5067510;28;20191;-41
2022/08/03 02:44:23;;;;;;;0.43;0.35;;;18.30;50.40;;;;;;5070383;28;20229;-36
2022/08/03 02:46:59;;;;;;;0.52;0.40;;;18.40;50.40;;;;;;5070077;28;20198;-46
2022/08/03 02:49:31;;;;;;;0.73;0.50;;;18.40;50.30;;;;;;5070050;28;20309;-37
2022/08/03 02:52:03;;;;;;;1.45;0.70;;;18.40;50.30;;;;;;5070585;28;20221;-36
2022/08/03 02:54:35;;;;;;;1.70;0.75;;;18.40;50.30;;;;;;5069812;28;20218;-37
2022/08/03 02:57:08;;;;;;;2.05;0.77;;;18.40;50.30;;;;;;5070414;28;20548;-37
2022/08/03 02:59:40;;;;;;;1.02;0.45;;;18.50;50.30;;;;;;5069040;28;20199;-42
2022/08/03 03:02:13;;;;;;;1.08;0.60;;;18.50;50.20;;;;;;5070353;28;20673;-37
2022/08/03 03:04:45;;;;;;;1.15;0.60;;;18.50;50.30;;;;;;5070422;28;20227;-37
2022/08/03 03:07:17;;;;;;;1.30;0.50;;;18.60;50.30;;;;;;5069832;28;20206;-38
2022/08/03 03:09:48;;;;;;;0.93;0.52;;;18.60;50.30;;;;;;5073391;28;20194;-39
2022/08/03 03:12:20;;;;;;;1.13;0.45;;;18.60;50.20;;;;;;5074109;28;20194;-37
2022/08/03 03:14:50;;;;;;;2.13;0.50;;;18.60;50.20;;;;;;5071561;28;20218;-37
2022/08/03 03:17:24;;;;;;;3.13;0.60;;;18.60;50.10;;;;;;5053986;28;20200;-37
2022/08/03 03:19:57;;;;;;;1.27;0.43;;;18.70;50.10;;;;;;5053621;28;20206;-36
2022/08/03 03:22:28;;;;;;;0.88;0.50;;;18.70;50.00;;;;;;5053619;28;20873;-37
2022/08/03 03:25:00;;;;;;;1.17;0.40;;;18.70;49.90;;;;;;5053645;28;20238;-37
2022/08/03 03:27:31;;;;;;;1.50;0.40;;;18.70;49.80;;;;;;5067614;28;20198;-36
2022/08/03 03:30:02;;;;;;;1.50;0.60;;;18.80;49.80;;;;;;5073257;28;20199;-37
2022/08/03 03:32:35;;;;;;;1.92;0.50;;;18.80;49.70;;;;;;5073337;28;20190;-40
2022/08/03 03:35:08;;;;;;;0.40;0.40;;;18.80;49.60;;;;;;5073932;28;20309;-37
2022/08/03 03:37:39;;;;;;;0.57;0.40;;;18.80;49.40;;;;;;5053700;28;20286;-37
2022/08/03 03:40:10;;;;;;;0.55;0.50;;;18.90;49.40;;;;;;5054922;28;20196;-38
2022/08/03 03:42:41;;;;;;;0.70;0.40;;;18.90;49.40;;;;;;5073712;28;20213;-45
2022/08/03 03:45:13;;;;;;;2.10;0.63;;;18.90;49.20;;;;;;5073414;28;20627;-44
2022/08/03 03:47:45;;;;;;;0.80;0.50;;;18.90;49.20;;;;;;5073138;28;20195;-44
2022/08/03 03:50:20;;;;;;;0.80;0.40;;;18.90;49.20;;;;;;5073000;28;20643;-37
2022/08/03 03:52:50;;;;;;;1.58;0.45;;;18.90;49.30;;;;;;5073275;28;20209;-38
2022/08/03 03:55:21;;;;;;;2.05;0.57;;;18.90;49.40;;;;;;5073448;28;20214;-37
2022/08/03 03:57:52;;;;;;;0.98;0.60;;;19.00;49.50;;;;;;5073283;28;20198;-38
2022/08/03 04:00:23;;;;;;;1.30;0.50;;;19.00;50.10;;;;;;5072242;28;20203;-42
2022/08/03 04:02:55;;;;;;;2.30;0.60;;;19.00;49.50;;;;;;5072494;28;20199;-37
2022/08/03 04:11:12;;;;;;;0.90;0.40;;;19.10;49.50;;;;;;5072837;28;20233;-41
2022/08/03 04:13:45;;;;;;;1.02;0.50;;;19.10;49.50;;;;;;5073275;28;20195;-37
2022/08/03 04:16:19;;;;;;;0.52;0.40;;;19.10;49.40;;;;;;5072982;28;20232;-39
2022/08/03 04:18:57;;;;;;;1.80;0.70;;;19.10;49.40;;;;;;5071718;28;20195;-42
2022/08/03 04:21:30;;;;;;;1.52;0.60;;;19.10;49.20;;;;;;5072379;28;20198;-37
2022/08/03 04:24:06;;;;;;;1.58;0.60;;;19.20;49.20;;;;;;5072891;28;20241;-37
2022/08/03 04:26:41;;;;;;;1.30;0.68;;;19.20;49.00;;;;;;5072874;28;20258;-36
2022/08/03 04:29:13;;;;;;;1.17;0.65;;;19.20;48.80;;;;;;5072512;28;20669;-37
2022/08/03 04:31:46;;;;;;;1.25;0.70;;;19.20;48.80;;;;;;5072122;28;20202;-37
2022/08/03 04:34:19;;;;;;;1.58;0.52;;;19.20;48.80;;;;;;5071989;28;20211;-43
2022/08/03 04:36:54;;;;;;;1.77;0.70;;;19.20;48.90;;;;;;5073034;28;20678;-37
2022/08/03 04:39:27;;;;;;;0.98;0.50;;;19.30;48.90;;;;;;5072743;28;20227;-37
2022/08/03 04:42:03;;;;;;;1.88;0.85;;;19.30;49.00;;;;;;5072514;28;20209;-37
2022/08/03 04:44:37;;;;;;;0.80;0.50;;;19.30;48.90;;;;;;5072346;28;20229;-42
2022/08/03 04:47:07;;;;;;;1.38;0.57;;;19.30;48.80;;;;;;5072336;28;20209;-37
2022/08/03 04:49:41;;;;;;;1.75;0.82;;;19.30;48.80;;;;;;5072303;28;20252;-37
2022/08/03 04:52:12;;;;;;;0.65;0.50;;;19.30;48.50;;;;;;5071936;28;20250;-38
2022/08/03 04:54:43;;;;;;;2.33;0.73;;;19.30;48.70;;;;;;5072418;28;20218;-37
2022/08/03 04:57:14;;;;;;;0.80;0.60;;;19.30;48.70;;;;;;5072182;28;20195;-36
2022/08/03 04:59:48;;;;;;;1.27;0.50;;;19.40;48.90;;;;;;5071050;28;20528;-36
2022/08/03 05:02:18;;;;;;;2.25;0.75;;;19.40;48.90;;;;;;5071447;28;20599;-36
2022/08/03 05:04:51;;;;;;;1.88;0.60;;;19.40;48.80;;;;;;5073037;28;20233;-35
2022/08/03 05:07:22;;;;;;;1.13;0.52;;;19.40;48.70;;;;;;5071862;28;20198;-38
2022/08/03 05:09:52;;;;;;;1.75;0.70;;;19.40;48.80;;;;;;5069439;28;20201;-35
2022/08/03 05:12:23;;;;;;;1.63;0.82;;;19.40;48.50;;;;;;5071206;28;20202;-37
2022/08/03 05:14:54;;;;;;;2.05;0.80;;;19.40;48.40;;;;;;5072075;28;20215;-43
2022/08/03 05:17:25;;;;;;;0.80;0.65;;;19.40;48.40;;;;;;5072225;28;20862;-35
2022/08/03 05:19:58;;;;;;;0.90;0.70;;;19.30;48.40;;;;;;5071397;28;20286;-35
2022/08/03 05:22:28;;;;;;;1.35;0.73;;;19.30;48.30;;;;;;5071730;28;20198;-36
2022/08/03 05:24:59;;;;;;;1.15;0.60;;;19.30;48.50;;;;;;5071628;28;20219;-36
2022/08/03 05:27:30;;;;;;;2.55;0.77;;;19.30;48.50;;;;;;5071222;28;20205;-44
2022/08/03 05:30:01;;;;;;;2.95;0.70;;;19.30;48.50;;;;;;5070946;28;20195;-37
2022/08/03 05:32:32;;;;;;;1.75;0.80;;;19.20;48.70;;;;;;5071678;28;20569;-35
2022/08/03 05:35:04;;;;;;;3.80;0.80;;;19.30;49.40;;;;;;5071844;28;20257;-35
2022/08/03 05:37:35;;;;;;;1.00;0.70;;;19.20;48.50;;;;;;5052199;28;20199;-36
2022/08/03 05:40:06;;;;;;;1.77;0.80;;;19.20;48.50;;;;;;5051763;28;20622;-36
2022/08/03 05:42:39;;;;;;;1.42;0.85;;;19.20;48.40;;;;;;5069734;28;20202;-36
2022/08/03 05:45:19;;;;;;;1.88;0.75;;;19.20;48.50;;;;;;5071646;28;20230;-35
2022/08/03 05:47:50;;;;;;;2.17;0.80;;;19.20;48.50;;;;;;5071565;28;20198;-36
2022/08/03 05:50:23;;;;;;;1.67;0.70;;;19.20;48.50;;;;;;5071631;28;20536;-36
2022/08/03 05:52:56;;;;;;;1.30;0.70;;;19.10;48.50;;;;;;5070892;28;20218;-36
2022/08/03 05:55:27;;;;;;;1.15;0.80;;;19.10;48.60;;;;;;5071045;28;20694;-36
2022/08/03 05:57:58;;;;;;;1.88;0.75;;;19.10;48.60;;;;;;5070925;28;20194;-36
2022/08/03 06:00:28;;;;;;;1.63;0.80;;;19.10;48.60;;;;;;5077723;28;20194;-36
2022/08/03 06:02:59;;;;;;;1.10;0.75;;;19.00;48.40;;;;;;5091948;28;20236;-35
2022/08/03 06:05:35;;;;;;;2.55;0.90;;;19.00;48.50;;;;;;5091684;28;20232;-36
2022/08/03 06:08:06;;;;;;;1.35;0.60;;;19.10;48.60;;;;;;5090967;28;20212;-35
2022/08/03 06:10:37;;;;;;;2.10;0.70;;;19.00;48.70;;;;;;5091125;28;20197;-44
2022/08/03 06:13:08;;;;;;;1.38;0.88;;;19.00;48.60;;;;;;5091459;28;20221;-37
2022/08/03 06:15:38;;;;;;;1.75;0.80;;;19.00;48.60;;;;;;5088803;28;20224;-40
2022/08/03 06:18:09;;;;;;;1.10;0.80;;;19.00;48.50;;;;;;5091435;28;20739;-35
2022/08/03 06:20:42;;;;;;;1.33;0.68;;;18.90;48.60;;;;;;5091428;28;20194;-46
2022/08/03 06:23:12;;;;;;;1.65;0.80;;;18.90;48.60;;;;;;5091232;28;20275;-38
2022/08/03 06:25:43;;;;;;;2.10;0.88;;;18.90;48.60;;;;;;5091222;28;20673;-38
2022/08/03 06:28:14;;;;;;;1.30;0.80;;;18.80;48.60;;;;;;5071431;28;20205;-37
2022/08/03 06:30:45;;;;;;;1.60;0.90;;;18.80;48.60;;;;;;5070836;28;20650;-36
2022/08/03 06:33:16;;;;;;;1.65;0.93;;;18.80;48.70;;;;;;5071204;28;20593;-38
2022/08/03 06:35:49;;;;;;;1.25;0.80;;;18.80;48.80;;;;;;5070840;28;20218;-38
2022/08/03 06:38:19;;;;;;;1.33;0.80;;;18.80;48.90;;;;;;5071427;28;20202;-36
2022/08/03 06:40:50;;;;;;;1.30;0.70;;;18.70;48.90;;;;;;5071396;28;20198;-35
2022/08/03 06:43:21;;;;;;;1.48;0.70;;;18.70;48.90;;;;;;5072567;28;20201;-35
2022/08/03 06:45:51;;;;;;;1.35;0.75;;;18.70;48.90;;;;;;5074874;28;20674;-40
2022/08/03 06:48:22;;;;;;;1.25;0.68;;;18.70;48.90;;;;;;5075086;28;20209;-38
2022/08/03 06:50:55;;;;;;;2.25;0.80;;;18.70;49.00;;;;;;5075116;28;20214;-36
2022/08/03 06:53:25;;;;;;;1.15;0.77;;;18.60;49.00;;;;;;5075089;28;20654;-40
2022/08/03 06:55:56;;;;;;;1.98;0.70;;;18.60;49.00;;;;;;5074615;28;20209;-35
2022/08/03 06:58:27;;;;;;;1.00;0.70;;;18.60;49.10;;;;;;5074796;28;20210;-50
2022/08/03 07:00:57;;;;;;;1.80;0.70;;;18.50;49.10;;;;;;5074871;28;20209;-47
2022/08/03 07:03:28;;;;;;;0.88;0.70;;;18.50;49.10;;;;;;5074737;28;20219;-42
2022/08/03 07:06:03;;;;;;;0.90;0.60;;;18.50;49.20;;;;;;5074722;28;20694;-40
2022/08/03 07:08:33;;;;;;;0.93;0.70;;;18.50;49.20;;;;;;5074571;28;20661;-35
2022/08/03 07:11:04;;;;;;;1.63;0.70;;;18.50;49.30;;;;;;5075050;28;20217;-47
2022/08/03 07:13:34;;;;;;;1.63;0.80;;;18.50;49.30;;;;;;5082318;28;20242;-36
2022/08/03 07:16:05;;;;;;;1.15;0.70;;;18.40;49.40;;;;;;5116362;27;20201;-40
2022/08/03 07:18:39;;;;;;;1.30;0.82;;;18.40;49.40;;;;;;5135181;27;20196;-41
2022/08/03 07:21:11;;;;;;;1.50;0.70;;;18.30;49.40;;;;;;5135726;27;20211;-35
2022/08/03 07:23:42;;;;;;;1.25;0.68;;;18.40;49.50;;;;;;5134839;27;20291;-39
2022/08/03 07:26:12;;;;;;;1.83;0.90;;;18.40;49.60;;;;;;5132861;27;20221;-39
2022/08/03 07:28:43;;;;;;;1.35;0.80;;;18.30;49.50;;;;;;5135306;27;20524;-36
2022/08/03 07:31:14;;;;;;;1.80;0.82;;;18.30;49.60;;;;;;5108379;27;20712;-49
2022/08/03 07:33:44;;;;;;;1.50;0.80;;;18.30;49.60;;;;;;5074031;28;20195;-40
2022/08/03 07:36:17;;;;;;;1.52;0.80;;;18.20;50.20;;;;;;5071707;28;20201;-39
2022/08/03 07:38:48;;;;;;;1.13;0.70;;;18.20;49.60;;;;;;5074155;28;20195;-40
2022/08/03 07:41:18;;;;;;;1.45;0.85;;;18.20;49.60;;;;;;5074155;28;20202;-46
2022/08/03 07:43:49;;;;;;;1.88;0.82;;;18.20;49.70;;;;;;5073918;28;20226;-42
2022/08/03 07:46:20;;;;;;;1.85;0.88;;;18.10;49.70;;;;;;5073140;28;20225;-35
2022/08/03 07:48:50;;;;;;;2.47;1.23;;;18.10;49.80;;;;;;5074308;28;20670;-41
2022/08/03 07:51:23;;;;;;;2.08;0.90;;;18.10;49.90;;;;;;5074015;28;20195;-35
2022/08/03 07:53:56;;;;;;;1.58;0.70;;;18.10;49.90;;;;;;5073898;28;20226;-37
2022/08/03 07:56:27;;;;;;;1.42;0.80;;;18.10;49.90;;;;;;5079926;28;20202;-38
2022/08/03 07:58:58;;;;;;;1.95;0.88;;;18.10;49.90;;;;;;5094303;28;20654;-35
2022/08/03 08:01:31;;;;;;;1.15;0.85;;;18.00;49.90;;;;;;5088599;28;20195;-40
2022/08/03 08:04:02;;;;;;;2.63;1.00;;;18.00;50.00;;;;;;5071193;28;20214;-35
2022/08/03 08:06:34;;;;;;;1.90;0.68;;;18.00;49.90;;;;;;5063926;28;20234;-38
2022/08/03 08:09:05;;;;;;;1.30;0.73;;;18.00;50.00;;;;;;5053806;28;20200;-35
2022/08/03 08:11:35;;;;;;;1.52;0.90;;;17.90;50.00;;;;;;5053971;28;20203;-39
2022/08/03 08:14:06;;;;;;;1.20;0.77;;;17.90;50.00;;;;;;5053592;28;20219;-43
2022/08/03 08:16:38;;;;;;;0.85;0.68;;;17.90;50.10;;;;;;5057799;28;20219;-42
2022/08/03 08:19:09;;;;;;;2.88;0.95;;;17.90;50.10;;;;;;5063444;28;20199;-51
2022/08/03 08:21:41;;;;;;;1.63;1.00;;;17.90;50.10;;;;;;5071785;28;20751;-39
2022/08/03 08:24:15;;;;;;;1.20;0.80;;;17.80;50.10;;;;;;5069566;28;20207;-41
2022/08/03 08:26:46;;;;;;;1.25;0.70;;;17.80;50.10;;;;;;5069854;28;20237;-49
2022/08/03 08:29:17;;;;;;;2.47;0.88;;;17.80;50.20;;;;;;5081613;28;20195;-42
2022/08/03 08:31:47;;;;;;;1.65;1.13;;;17.80;50.20;;;;;;4968650;28;3073267;-49
2022/08/03 08:34:18;;;;;;;2.40;0.80;;;17.80;50.20;;;;;;5072739;28;20222;-35
2022/08/03 08:36:50;;;;;;;2.78;0.80;;;17.80;50.20;;;;;;5070079;28;20202;-38
2022/08/03 08:39:21;;;;;;;2.60;1.08;;;17.80;50.20;;;;;;5052960;28;20210;-48
2022/08/03 08:41:54;;;;;;;3.70;1.15;;;17.80;50.30;;;;;;5053055;28;20552;-36
2022/08/03 08:44:25;;;;;;;1.45;0.98;;;17.70;50.30;;;;;;5052070;28;20254;-35
2022/08/03 08:46:56;;;;;;;2.88;1.05;;;17.70;50.30;;;;;;5052324;28;20223;-36
2022/08/03 08:49:30;;;;;;;3.53;1.40;;;17.70;50.40;;;;;;5051721;28;20191;-38
2022/08/03 08:52:02;;;;;;;2.88;1.40;;;17.60;50.30;;;;;;5052887;28;20200;-38
2022/08/03 08:54:35;;;;;;;6.03;1.52;;;17.60;50.40;;;;;;5052002;28;20223;-35
2022/08/03 08:57:07;;;;;;;4.50;1.48;;;17.60;50.40;;;;;;5063109;28;20198;-39
2022/08/03 08:59:39;;;;;;;1.80;1.25;;;17.60;50.40;;;;;;5071866;28;20194;-39
2022/08/03 09:02:09;;;;;;;2.60;1.17;;;17.50;50.40;;;;;;5071534;28;21208;-36
2022/08/03 09:04:42;;;;;;;3.92;1.70;;;17.50;50.40;;;;;;5071804;28;20214;-35
2022/08/03 09:07:14;;;;;;;2.45;1.27;;;17.50;50.40;;;;;;5070183;28;20384;-53
2022/08/03 09:09:45;;;;;;;4.93;1.52;;;17.60;50.40;;;;;;5071172;28;20206;-49
2022/08/03 09:12:16;;;;;;;5.00;1.80;;;17.50;50.50;;;;;;5071078;28;20550;-42
2022/08/03 09:14:47;;;;;;;3.00;1.25;;;17.50;50.50;;;;;;5071224;28;20679;-42
2022/08/03 09:17:18;;;;;;;3.42;1.55;;;17.50;50.50;;;;;;5070168;28;20195;-45
2022/08/03 09:20:07;;;;;;;3.25;1.60;;;17.50;50.60;;;;;;5069640;28;20187;-41
2022/08/03 09:22:55;;;;;;;4.20;1.35;;;17.40;51.20;;;;;;5071172;28;20190;-37
2022/08/03 09:25:35;;;;;;;4.53;1.45;;;17.40;50.60;;;;;;5071245;28;20218;-35
2022/08/03 09:28:10;;;;;;;3.80;1.58;;;17.40;50.60;;;;;;5071063;28;20230;-43
2022/08/03 09:30:42;;;;;;;4.40;1.77;;;17.40;50.60;;;;;;5066175;28;20230;-35
2022/08/03 09:33:15;;;;;;;3.97;1.75;;;17.40;50.60;;;;;;5071395;28;20199;-38
2022/08/03 09:35:46;;;;;;;3.85;1.65;;;17.40;50.60;;;;;;5071161;28;20251;-47
2022/08/03 09:38:22;;;;;;;4.63;1.70;;;17.30;50.50;;;;;;5086418;28;20298;-36
2022/08/03 09:40:53;;;;;;;5.60;1.88;;;17.30;50.50;;;;;;5091959;28;20653;-35
2022/08/03 09:43:26;;;;;;;4.97;1.60;;;17.30;50.50;;;;;;5091588;28;20204;-36
2022/08/03 09:46:06;;;;;;;7.30;2.28;;;17.30;50.50;;;;;;5091511;28;20194;-40
2022/08/03 09:48:37;;;;;;;4.10;2.00;;;17.30;50.60;;;;;;5091781;28;20561;-43
2022/08/03 09:51:08;;;;;;;4.82;1.90;;;17.20;50.60;;;;;;5091557;28;20504;-35
2022/08/03 09:53:47;;;;;;;4.80;1.92;;;17.20;50.60;;;;;;5091136;28;20204;-36
2022/08/03 09:56:18;;;;;;;4.32;2.20;;;17.20;50.70;;;;;;5090684;28;20205;-37
2022/08/03 09:58:50;;;;;;;6.53;2.17;;;17.20;50.70;;;;;;5091909;28;20205;-37
2022/08/03 10:01:20;;;;;;;5.05;2.25;;;17.20;50.70;;;;;;5091578;28;20205;-35
2022/08/03 10:04:00;;;;;;;5.38;1.98;;;17.10;50.60;;;;;;5091604;28;20217;-36
2022/08/03 10:06:31;;;;;;;4.40;1.85;;;17.10;50.60;;;;;;5091632;28;20642;-36
2022/08/03 10:09:14;;;;;;;4.05;1.85;;;17.10;50.60;;;;;;5091599;28;20217;-39
2022/08/03 10:11:47;;;;;;;5.45;2.00;;;17.10;50.60;;;;;;5091357;28;20335;-36
2022/08/03 10:14:19;;;;;;;5.18;2.15;;;17.10;50.70;;;;;;5090944;28;20216;-36
2022/08/03 10:16:51;;;;;;;4.38;2.00;;;17.10;50.70;;;;;;5091261;28;20564;-35
2022/08/03 10:19:21;;;;;;;3.85;1.73;;;17.10;50.70;;;;;;5090461;28;20256;-37
2022/08/03 10:21:55;;;;;;;4.55;2.30;;;17.00;50.80;;;;;;5090955;28;20201;-36
2022/08/03 10:24:31;;;;;;;5.55;2.25;;;17.00;50.70;;;;;;5090691;28;20213;-35
2022/08/03 10:27:05;;;;;;;5.00;1.95;;;17.00;50.80;;;;;;5091474;28;20236;-39
2022/08/03 10:29:40;;;;;;;4.75;1.83;;;17.00;50.70;;;;;;5090988;28;20221;-35
2022/08/03 10:32:17;;;;;;;7.43;2.35;;;17.00;50.80;;;;;;5070940;28;20205;-38
2022/08/03 10:34:48;;;;;;;7.75;2.63;;;17.00;50.80;;;;;;5070618;28;20218;-35
2022/08/03 10:37:20;;;;;;;4.90;2.00;;;16.90;50.70;;;;;;5070528;28;20215;-35
2022/08/03 10:39:57;;;;;;;5.20;1.90;;;17.00;50.80;;;;;;5070668;28;20209;-34
2022/08/03 10:42:30;;;;;;;5.13;2.00;;;16.90;50.80;;;;;;5069700;28;20539;-39
2022/08/03 10:45:07;;;;;;;6.25;2.75;;;16.90;50.80;;;;;;5069878;28;20700;-35
2022/08/03 10:47:38;;;;;;;3.95;2.30;;;16.90;50.90;;;;;;5070016;28;20222;-35
2022/08/03 10:50:10;;;;;;;7.65;2.67;;;16.90;50.90;;;;;;5070047;28;20198;-35
2022/08/03 10:52:57;;;;;;;5.28;2.45;;;16.90;50.90;;;;;;5070040;28;20190;-35
2022/08/03 10:58:53;;;;;;;3.25;1.77;;;16.80;50.90;;;;;;5050205;28;20277;-35
2022/08/03 11:01:53;;;;;;;4.28;1.90;;;16.80;50.80;;;;;;5050480;28;20203;-37
2022/08/03 11:04:25;;;;;;;3.35;1.77;;;16.80;50.80;;;;;;5049800;28;20219;-36
2022/08/03 11:07:23;;;;;;;4.55;2.00;;;16.80;50.70;;;;;;5066825;28;20218;-37
2022/08/03 11:09:54;;;;;;;4.75;2.25;;;16.80;50.80;;;;;;5069406;28;20538;-35
2022/08/03 11:12:29;;;;;;;5.13;2.72;;;16.80;50.80;;;;;;5070444;28;20187;-40
2022/08/03 11:15:01;;;;;;;4.45;1.90;;;16.80;50.90;;;;;;5049949;28;20217;-37
2022/08/03 11:17:31;;;;;;;4.18;2.17;;;16.70;50.90;;;;;;5050702;28;20204;-35
2022/08/03 11:20:04;;;;;;;5.57;2.30;;;16.70;50.90;;;;;;5050350;28;20199;-48
2022/08/03 11:22:53;;;;;;;4.80;2.17;;;16.70;50.90;;;;;;5050477;28;20629;-46
2022/08/03 11:25:23;;;;;;;5.13;2.08;;;16.70;51.00;;;;;;5050204;28;20579;-36
2022/08/03 11:28:28;;;;;;;5.03;2.40;;;16.70;50.90;;;;;;5068503;28;20227;-36
2022/08/03 11:31:11;;;;;;;3.67;2.25;;;16.70;50.90;;;;;;5073590;28;20349;-35
2022/08/03 11:33:42;;;;;;;4.82;2.33;;;16.70;50.90;;;;;;5072825;28;20202;-36
2022/08/03 11:36:15;;;;;;;4.57;2.00;;;16.70;50.90;;;;;;5072937;28;20194;-35
2022/08/03 11:39:15;;;;;;;5.50;2.22;;;16.70;50.90;;;;;;5072507;28;20202;-36
2022/08/03 11:41:46;;;;;;;4.15;2.22;;;16.60;50.80;;;;;;5072145;28;20201;-42
2022/08/03 11:44:45;;;;;;;4.13;1.85;;;16.60;50.90;;;;;;5072186;28;20698;-41
2022/08/03 11:47:16;;;;;;;5.65;2.30;;;16.60;51.00;;;;;;5072144;28;20222;-35
2022/08/03 11:49:48;;;;;;;3.63;2.10;;;16.60;51.00;;;;;;5072541;28;20651;-36
2022/08/03 11:52:19;;;;;;;4.38;2.10;;;16.60;51.00;;;;;;5072564;28;20568;-35
2022/08/03 11:54:54;;;;;;;4.03;2.00;;;16.60;51.10;;;;;;5072105;28;20226;-35
2022/08/03 11:57:32;;;;;;;5.38;2.13;;;16.60;51.00;;;;;;5066172;28;20688;-35
2022/08/03 12:00:05;;;;;;;3.95;1.98;;;16.60;51.00;;;;;;5072475;28;20202;-37
2022/08/03 12:02:36;;;;;;;5.30;2.28;;;16.60;51.00;;;;;;5072240;28;20205;-36
2022/08/03 12:05:07;;;;;;;4.78;2.10;;;16.50;51.20;;;;;;5073394;28;20215;-36
2022/08/03 12:07:49;;;;;;;4.30;1.92;;;16.50;50.90;;;;;;5072826;28;20698;-35
2022/08/03 12:10:20;;;;;;;4.40;2.17;;;16.50;50.90;;;;;;5072278;28;20197;-35
2022/08/03 12:12:58;;;;;;;3.75;2.20;;;16.50;51.00;;;;;;5072613;28;20282;-36
2022/08/03 12:15:33;;;;;;;4.05;2.00;;;16.50;51.10;;;;;;5072204;28;20211;-36
2022/08/03 12:18:04;;;;;;;6.10;2.13;;;16.50;51.00;;;;;;5072357;28;20252;-36
2022/08/03 12:20:35;;;;;;;4.95;2.22;;;16.50;51.00;;;;;;5072181;28;20190;-36
2022/08/03 12:23:08;;;;;;;5.45;2.15;;;16.50;51.00;;;;;;5072342;28;20281;-35
2022/08/03 12:25:40;;;;;;;3.95;1.80;;;16.50;51.00;;;;;;5072282;28;20252;-40
2022/08/03 12:28:21;;;;;;;3.95;1.88;;;16.50;51.10;;;;;;5052002;28;20234;-38
2022/08/03 12:30:55;;;;;;;5.22;2.00;;;16.50;51.00;;;;;;5072922;28;20245;-36
2022/08/03 12:33:28;;;;;;;3.25;1.95;;;16.40;51.00;;;;;;5115950;27;20216;-43
2022/08/03 12:36:10;;;;;;;3.38;1.85;;;16.40;51.00;;;;;;5119667;27;20202;-37
2022/08/03 12:38:42;;;;;;;2.88;1.95;;;16.40;50.90;;;;;;5114744;27;20228;-35
2022/08/03 12:41:15;;;;;;;3.83;1.80;;;16.40;51.00;;;;;;5110983;28;20600;-35
2022/08/03 12:43:51;;;;;;;4.15;1.90;;;16.40;51.00;;;;;;5112162;28;20201;-36
2022/08/03 12:46:24;;;;;;;6.85;2.38;;;16.40;51.00;;;;;;5112173;27;20189;-41
2022/08/03 12:49:08;;;;;;;3.25;1.80;;;16.40;51.10;;;;;;5112008;28;20574;-36
2022/08/03 12:51:40;;;;;;;3.65;1.92;;;16.40;51.10;;;;;;5111956;28;20193;-35
2022/08/03 12:54:11;;;;;;;3.70;2.08;;;16.40;51.10;;;;;;5112054;28;20213;-36
2022/08/03 12:56:59;;;;;;;4.38;1.92;;;16.30;51.10;;;;;;5111471;28;20574;-35
2022/08/03 12:59:31;;;;;;;3.28;2.20;;;16.30;51.10;;;;;;5111962;28;20593;-37
2022/08/03 13:02:04;;;;;;;3.47;1.63;;;16.30;51.10;;;;;;5111167;28;20637;-35
2022/08/03 13:04:36;;;;;;;4.03;1.90;;;16.30;51.10;;;;;;5111620;28;20213;-36
2022/08/03 13:07:08;;;;;;;3.75;1.80;;;16.30;51.00;;;;;;5112068;28;20190;-39
2022/08/03 13:09:45;;;;;;;4.05;1.95;;;16.30;51.00;;;;;;5111979;28;20227;-35
2022/08/03 13:12:18;;;;;;;4.25;2.00;;;16.30;51.00;;;;;;5111262;28;20200;-35
2022/08/03 13:14:50;;;;;;;3.97;1.90;;;16.30;51.10;;;;;;5111306;28;20213;-41
2022/08/03 13:17:23;;;;;;;2.72;1.60;;;16.30;51.20;;;;;;5111203;28;20266;-37
2022/08/03 13:19:54;;;;;;;4.43;1.90;;;16.30;51.10;;;;;;5111775;28;20197;-36
2022/08/03 13:22:27;;;;;;;4.38;1.77;;;16.30;51.20;;;;;;5111871;28;20224;-36
2022/08/03 13:24:59;;;;;;;2.97;1.80;;;16.20;51.10;;;;;;5111646;28;20216;-41
2022/08/03 13:27:31;;;;;;;3.55;1.77;;;16.20;51.10;;;;;;5111064;27;20285;-38